createdAt,value
2023-03-15T00:00:21.982Z,98538.65
2023-03-15T00:03:16.415Z,98543.23
2023-03-15T00:05:52.688Z,98543.75
2023-03-15T00:08:26.808Z,98550.73
2023-03-15T00:11:00.670Z,98557.77
2023-03-15T00:13:35.040Z,98563.94
2023-03-15T00:16:09.638Z,98565.73
2023-03-15T00:18:43.498Z,98568.64
2023-03-15T00:21:17.202Z,98570.23
2023-03-15T00:23:50.887Z,98573.45
2023-03-15T00:26:25.155Z,98578.82
2023-03-15T00:28:58.705Z,98582.98
2023-03-15T00:31:32.440Z,98588.98
2023-03-15T00:34:05.897Z,98599.79
2023-03-15T00:36:39.530Z,98612.55
2023-03-15T00:39:13.055Z,98627.66
2023-03-15T00:41:47.246Z,98647.61
2023-03-15T00:44:21.637Z,98675.14
2023-03-15T00:46:55.760Z,98693.63
2023-03-15T00:49:29.502Z,98722.25
2023-03-15T00:52:03.779Z,98748.75
2023-03-15T00:54:38.027Z,98759.63
2023-03-15T00:57:11.918Z,98777.71
2023-03-15T00:59:45.586Z,98794.45
2023-03-15T01:02:22.406Z,98808.88
2023-03-15T01:04:56.588Z,98827.80
2023-03-15T01:07:30.363Z,98838.84
2023-03-15T01:10:03.953Z,98843.73
2023-03-15T01:12:37.991Z,98852.79
2023-03-15T01:15:15.048Z,98863.77
2023-03-15T01:17:49.062Z,98877.29
2023-03-15T01:20:22.825Z,98883.27
2023-03-15T01:22:56.193Z,98904.61
2023-03-15T01:25:29.494Z,98907.70
2023-03-15T01:28:03.823Z,98909.79
2023-03-15T01:30:37.475Z,98914.81
2023-03-15T01:33:11.571Z,98929.17
2023-03-15T01:35:45.349Z,98939.41
2023-03-15T01:38:19.288Z,98952.17
2023-03-15T01:40:53.194Z,98962.02
2023-03-15T01:43:28.303Z,98967.48
2023-03-15T01:46:08.467Z,98968.11
2023-03-15T01:48:50.189Z,98975.25
2023-03-15T01:51:34.717Z,98989.84
2023-03-15T01:54:12.313Z,99010.33
2023-03-15T01:56:54.108Z,99020.34
2023-03-15T01:59:32.470Z,99029.05
2023-03-15T02:02:07.131Z,99047.70
2023-03-15T02:04:46.829Z,99054.76
2023-03-15T02:07:23.055Z,99060.67
2023-03-15T02:10:03.735Z,99077.19
2023-03-15T02:12:43.662Z,99090.55
2023-03-15T02:15:18.053Z,99095.81
2023-03-15T02:17:52.313Z,99107.88
2023-03-15T02:20:37.697Z,99115.89
2023-03-15T02:23:14.855Z,99127.35
2023-03-15T02:25:58.431Z,99128.05
2023-03-15T02:28:34.853Z,99130.86
2023-03-15T02:31:08.257Z,99140.23
2023-03-15T02:33:45.615Z,99152.26
2023-03-15T02:36:23.713Z,99158.77
2023-03-15T02:38:58.311Z,99165.30
2023-03-15T02:41:36.779Z,99171.95
2023-03-15T02:44:13.567Z,99182.73
2023-03-15T02:46:49.658Z,99188.82
2023-03-15T02:49:29.991Z,99198.40
2023-03-15T02:52:04.029Z,99203.92
2023-03-15T02:54:37.413Z,99210.25
2023-03-15T02:57:11.526Z,99214.48
2023-03-15T02:59:45.233Z,99215.15
2023-03-15T03:02:19.316Z,99214.22
2023-03-15T03:04:54.269Z,99225.34
2023-03-15T03:07:28.628Z,99240.73
2023-03-15T03:10:08.149Z,99250.55
2023-03-15T03:12:53.850Z,99260.02
2023-03-15T03:15:33.362Z,99256.43
2023-03-15T03:18:07.452Z,99262.61
2023-03-15T03:20:41.534Z,99268.55
2023-03-15T03:23:15.824Z,99272.79
2023-03-15T03:25:49.513Z,99284.49
2023-03-15T03:28:24.537Z,99294.38
2023-03-15T03:30:59.648Z,99294.16
2023-03-15T03:33:33.215Z,99296.42
2023-03-15T03:36:07.150Z,99301.65
2023-03-15T03:38:40.986Z,99311.52
2023-03-15T03:41:15.471Z,99311.13
2023-03-15T03:43:49.796Z,99313.42
2023-03-15T03:46:23.606Z,99317.42
2023-03-15T03:48:59.295Z,99318.40
2023-03-15T03:51:34.540Z,99324.49
2023-03-15T03:54:08.657Z,99332.56
2023-03-15T03:56:42.506Z,99338.64
2023-03-15T03:59:16.517Z,99341.23
2023-03-15T04:01:58.066Z,99348.35
2023-03-15T04:04:31.542Z,99352.90
2023-03-15T04:07:05.592Z,99355.70
2023-03-15T04:09:43.082Z,99365.83
2023-03-15T04:12:17.233Z,99370.02
2023-03-15T04:14:52.443Z,99384.71
2023-03-15T04:17:28.299Z,99386.23
2023-03-15T04:20:06.274Z,99393.34
2023-03-15T04:22:50.286Z,99392.42
2023-03-15T04:25:34.624Z,99393.70
2023-03-15T04:28:19.169Z,99393.02
2023-03-15T04:31:19.430Z,99396.64
2023-03-15T04:34:19.818Z,99399.77
2023-03-15T04:37:10.726Z,99410.39
2023-03-15T04:40:08.949Z,99413.47
2023-03-15T04:42:55.830Z,99415.32
2023-03-15T04:45:48.305Z,99422.77
2023-03-15T04:48:47.842Z,99429.25
2023-03-15T04:51:57.101Z,99427.59
2023-03-15T04:54:46.806Z,99433.52
2023-03-15T04:57:44.305Z,99434.35
2023-03-15T05:00:37.103Z,99435.81
2023-03-15T05:03:29.211Z,99442.03
2023-03-15T05:06:21.853Z,99447.81
2023-03-15T05:09:19.570Z,99456.26
2023-03-15T05:12:16.569Z,99461.30
2023-03-15T05:15:18.865Z,99463.42
2023-03-15T05:18:19.461Z,99473.52
2023-03-15T05:21:12.968Z,99482.25
2023-03-15T05:24:05.670Z,99488.80
2023-03-15T05:26:58.622Z,99492.98
2023-03-15T05:29:52.836Z,99500.88
2023-03-15T05:32:53.561Z,99500.71
2023-03-15T05:35:46.333Z,99500.29
2023-03-15T05:38:27.006Z,99501.70
2023-03-15T05:41:19.529Z,99501.99
2023-03-15T05:44:02.805Z,99507.08
2023-03-15T05:47:06.190Z,99515.38
2023-03-15T05:49:58.136Z,99515.81
2023-03-15T05:53:04.105Z,99524.30
2023-03-15T05:56:11.603Z,99535.27
2023-03-15T05:58:58.863Z,99552.77
2023-03-15T06:01:51.948Z,99557.40
2023-03-15T06:04:30.667Z,99560.60
2023-03-15T06:07:04.640Z,99563.91
2023-03-15T06:09:39.306Z,99563.73
2023-03-15T06:12:13.959Z,99564.89
2023-03-15T06:14:48.595Z,99564.66
2023-03-15T06:17:22.469Z,99569.14
2023-03-15T06:19:56.577Z,99572.58
2023-03-15T06:22:30.025Z,99580.02
2023-03-15T06:25:10.000Z,99584.15
2023-03-15T06:27:43.563Z,99588.30
2023-03-15T06:30:18.205Z,99596.03
2023-03-15T06:32:53.262Z,99600.10
2023-03-15T06:35:27.289Z,99602.52
2023-03-15T06:38:01.464Z,99608.41
2023-03-15T06:40:35.475Z,99618.73
2023-03-15T06:43:09.290Z,99637.91
2023-03-15T06:45:43.311Z,99652.64
2023-03-15T06:48:17.801Z,99657.52
2023-03-15T06:50:51.784Z,99665.18
2023-03-15T06:53:25.480Z,99666.73
2023-03-15T06:55:59.307Z,99665.95
2023-03-15T06:58:33.191Z,99674.50
2023-03-15T07:01:08.411Z,99685.06
2023-03-15T07:03:42.316Z,99700.09
2023-03-15T07:06:15.840Z,99702.90
2023-03-15T07:08:49.382Z,99697.13
2023-03-15T07:11:23.460Z,99701.54
2023-03-15T07:13:57.271Z,99708.80
2023-03-15T07:16:31.340Z,99708.73
2023-03-15T07:19:05.635Z,99712.85
2023-03-15T07:21:39.533Z,99708.03
2023-03-15T07:24:13.626Z,99712.89
2023-03-15T07:26:47.159Z,99716.90
2023-03-15T07:29:20.685Z,99716.55
2023-03-15T07:31:54.178Z,99711.52
2023-03-15T07:34:28.119Z,99713.68
2023-03-15T07:37:02.041Z,99716.55
2023-03-15T07:39:35.815Z,99719.63
2023-03-15T07:42:10.044Z,99720.55
2023-03-15T07:44:48.326Z,99715.70
2023-03-15T07:47:22.197Z,99721.08
2023-03-15T07:49:56.161Z,99723.27
2023-03-15T07:52:29.580Z,99726.06
2023-03-15T07:55:05.179Z,99732.04
2023-03-15T07:57:39.471Z,99739.48
2023-03-15T08:00:15.610Z,99747.40
2023-03-15T08:02:49.481Z,99753.96
2023-03-15T08:05:23.128Z,99754.12
2023-03-15T08:07:57.125Z,99758.45
2023-03-15T08:10:31.938Z,99758.44
2023-03-15T08:13:05.885Z,99760.13
2023-03-15T08:15:39.496Z,99766.34
2023-03-15T08:18:13.319Z,99780.92
2023-03-15T08:20:46.791Z,99782.60
2023-03-15T08:23:20.702Z,99777.52
2023-03-15T08:25:54.361Z,99784.22
2023-03-15T08:28:28.147Z,99791.36
2023-03-15T08:31:01.957Z,99800.58
2023-03-15T08:33:35.894Z,99803.95
2023-03-15T08:36:10.717Z,99814.42
2023-03-15T08:38:44.622Z,99817.56
2023-03-15T08:41:18.521Z,99818.08
2023-03-15T08:43:52.782Z,99818.50
2023-03-15T08:46:26.791Z,99823.70
2023-03-15T08:49:01.243Z,99829.58
2023-03-15T08:51:35.946Z,99837.91
2023-03-15T08:54:09.245Z,99835.95
2023-03-15T08:56:42.993Z,99837.98
2023-03-15T08:59:28.952Z,99845.77
2023-03-15T09:02:05.758Z,99850.27
2023-03-15T09:04:40.322Z,99849.77
2023-03-15T09:07:14.437Z,99851.16
2023-03-15T09:09:48.590Z,99853.06
2023-03-15T09:12:23.073Z,99856.64
2023-03-15T09:14:57.447Z,99860.05
2023-03-15T09:17:32.053Z,99858.61
2023-03-15T09:20:09.348Z,99860.70
2023-03-15T09:22:43.006Z,99875.23
2023-03-15T09:25:17.024Z,99878.41
2023-03-15T09:27:50.911Z,99874.83
2023-03-15T09:30:25.783Z,99876.34
2023-03-15T09:32:59.523Z,99877.45
2023-03-15T09:35:33.795Z,99879.91
2023-03-15T09:38:07.548Z,99879.03
2023-03-15T09:40:46.561Z,99878.10
2023-03-15T09:43:47.173Z,99881.08
2023-03-15T09:46:31.293Z,99883.88
2023-03-15T09:49:14.507Z,99883.41
2023-03-15T09:51:53.265Z,99879.14
2023-03-15T09:54:27.992Z,99871.80
2023-03-15T09:57:04.893Z,99867.71
2023-03-15T09:59:43.894Z,99860.29
2023-03-15T10:02:25.508Z,99858.61
2023-03-15T10:05:04.221Z,99858.52
2023-03-15T10:07:38.640Z,99853.66
2023-03-15T10:10:20.240Z,99852.52
2023-03-15T10:13:02.891Z,99853.55
2023-03-15T10:15:46.581Z,99857.05
2023-03-15T10:18:36.322Z,99860.45
2023-03-15T10:21:17.844Z,99858.65
2023-03-15T10:23:55.224Z,99862.22
2023-03-15T10:26:34.556Z,99867.21
2023-03-15T10:29:16.584Z,99869.10
2023-03-15T10:31:53.061Z,99873.25
2023-03-15T10:34:27.859Z,99875.15
2023-03-15T10:37:01.792Z,99873.39
2023-03-15T10:39:35.653Z,99864.73
2023-03-15T10:42:24.243Z,99865.62
2023-03-15T10:44:58.226Z,99866.52
2023-03-15T10:47:32.009Z,99866.78
2023-03-15T10:50:06.255Z,99868.25
2023-03-15T10:52:42.227Z,99865.46
2023-03-15T10:55:18.678Z,99864.64
2023-03-15T10:57:58.010Z,99868.36
2023-03-15T11:00:34.840Z,99868.70
2023-03-15T11:03:18.094Z,99869.56
2023-03-15T11:05:53.537Z,99873.94
2023-03-15T11:08:39.047Z,99873.64
2023-03-15T11:11:13.071Z,99875.13
2023-03-15T11:14:02.074Z,99873.38
2023-03-15T11:16:39.721Z,99872.98
2023-03-15T11:19:20.122Z,99871.85
2023-03-15T11:21:54.780Z,99872.23
2023-03-15T11:24:30.568Z,99868.32
2023-03-15T11:27:05.937Z,99869.60
2023-03-15T11:29:42.067Z,99869.70
2023-03-15T11:32:21.002Z,99871.48
2023-03-15T11:35:02.467Z,99874.13
2023-03-15T11:37:41.979Z,99874.33
2023-03-15T11:40:20.666Z,99873.55
2023-03-15T11:42:57.118Z,99874.77
2023-03-15T11:45:38.043Z,99873.55
2023-03-15T11:48:34.283Z,99870.55
2023-03-15T11:51:09.993Z,99871.52
2023-03-15T11:53:47.878Z,99870.27
2023-03-15T11:56:31.008Z,99875.59
2023-03-15T11:59:11.718Z,99882.83
2023-03-15T12:01:50.266Z,99885.89
2023-03-15T12:04:44.451Z,99881.91
2023-03-15T12:07:40.400Z,99882.19
2023-03-15T12:10:49.915Z,99884.52
2023-03-15T12:13:28.123Z,99885.05
2023-03-15T12:16:02.389Z,99885.13
2023-03-15T12:18:46.574Z,99884.00
2023-03-15T12:21:25.363Z,99890.17
2023-03-15T12:24:05.647Z,99894.34
2023-03-15T12:26:50.813Z,99897.30
2023-03-15T12:29:26.581Z,99901.77
2023-03-15T12:32:07.967Z,99910.90
2023-03-15T12:34:49.530Z,99908.97
2023-03-15T12:37:26.177Z,99912.35
2023-03-15T12:40:26.849Z,99915.76
2023-03-15T12:43:07.760Z,99920.66
2023-03-15T12:45:45.857Z,99925.41
2023-03-15T12:48:27.696Z,99925.64
2023-03-15T12:51:07.511Z,99926.67
2023-03-15T12:53:47.908Z,99931.98
2023-03-15T12:56:33.027Z,99939.77
2023-03-15T12:59:17.211Z,99944.42
2023-03-15T13:01:52.342Z,99947.42
2023-03-15T13:04:28.024Z,99952.27
2023-03-15T13:07:25.347Z,99959.24
2023-03-15T13:10:29.685Z,99959.82
2023-03-15T13:13:14.451Z,99963.10
2023-03-15T13:16:00.196Z,99965.38
2023-03-15T13:18:38.315Z,99968.73
2023-03-15T13:21:19.964Z,99972.01
2023-03-15T13:23:58.852Z,99977.39
2023-03-15T13:26:35.467Z,99981.95
2023-03-15T13:29:18.007Z,99978.59
2023-03-15T13:32:04.870Z,99985.77
2023-03-15T13:34:39.155Z,99990.13
2023-03-15T13:37:22.290Z,99993.58
2023-03-15T13:40:02.546Z,99993.79
2023-03-15T13:42:41.321Z,99995.14
2023-03-15T13:45:17.698Z,99996.27
2023-03-15T13:47:51.731Z,99997.66
2023-03-15T13:50:25.903Z,100004.05
2023-03-15T13:53:00.104Z,100005.31
2023-03-15T13:55:37.984Z,100001.02
2023-03-15T13:58:12.843Z,100002.11
2023-03-15T14:00:47.575Z,100004.98
2023-03-15T14:03:24.397Z,100011.88
2023-03-15T14:06:00.047Z,100016.88
2023-03-15T14:08:37.189Z,100015.17
2023-03-15T14:11:19.920Z,100014.97
2023-03-15T14:13:58.204Z,100015.41
2023-03-15T14:17:01.004Z,100015.58
2023-03-15T14:19:37.730Z,100021.13
2023-03-15T14:22:20.326Z,100022.07
2023-03-15T14:24:55.225Z,100028.54
2023-03-15T14:27:30.994Z,100031.70
2023-03-15T14:30:06.860Z,100030.95
2023-03-15T14:32:52.748Z,100034.86
2023-03-15T14:35:31.867Z,100037.75
2023-03-15T14:38:17.225Z,100038.91
2023-03-15T14:40:52.489Z,100036.61
2023-03-15T14:43:27.325Z,100040.08
2023-03-15T14:46:02.076Z,100045.02
2023-03-15T14:48:36.168Z,100050.77
2023-03-15T14:51:15.193Z,100054.73
2023-03-15T14:53:50.910Z,100055.27
2023-03-15T14:56:25.174Z,100053.36
2023-03-15T14:58:59.146Z,100054.38
2023-03-15T15:01:33.644Z,100058.89
2023-03-15T15:04:08.093Z,100061.27
2023-03-15T15:06:53.524Z,100059.42
2023-03-15T15:09:31.339Z,100063.98
2023-03-15T15:12:05.390Z,100070.81
2023-03-15T15:14:39.014Z,100072.09
2023-03-15T15:17:13.817Z,100066.16
2023-03-15T15:19:47.697Z,100067.05
2023-03-15T15:22:22.016Z,100069.82
2023-03-15T15:24:58.226Z,100075.37
2023-03-15T15:27:32.461Z,100078.71
2023-03-15T15:30:09.948Z,100079.84
2023-03-15T15:32:50.363Z,100083.84
2023-03-15T15:35:24.711Z,100089.20
2023-03-15T15:37:59.424Z,100088.66
2023-03-15T15:40:35.474Z,100093.02
2023-03-15T15:43:12.216Z,100099.21
2023-03-15T15:45:47.250Z,100101.58
2023-03-15T15:48:21.421Z,100100.90
2023-03-15T15:50:57.068Z,100106.04
2023-03-15T15:53:34.648Z,100115.98
2023-03-15T15:56:12.946Z,100117.40
2023-03-15T15:58:48.302Z,100119.15
2023-03-15T16:01:23.278Z,100121.72
2023-03-15T16:03:58.710Z,100124.40
2023-03-15T16:06:35.486Z,100129.05
2023-03-15T16:09:14.156Z,100125.88
2023-03-15T16:11:49.500Z,100124.16
2023-03-15T16:14:24.967Z,100126.76
2023-03-15T16:17:00.359Z,100132.56
2023-03-15T16:19:34.947Z,100138.02
2023-03-15T16:22:09.077Z,100136.76
2023-03-15T16:24:48.115Z,100143.62
2023-03-15T16:27:29.879Z,100146.77
2023-03-15T16:30:17.950Z,100147.48
2023-03-15T16:32:55.959Z,100150.14
2023-03-15T16:35:37.446Z,100156.25
2023-03-15T16:38:24.821Z,100156.70
2023-03-15T16:41:02.825Z,100157.45
2023-03-15T16:43:43.479Z,100158.67
2023-03-15T16:46:26.455Z,100159.69
2023-03-15T16:49:04.980Z,100161.35
2023-03-15T16:51:45.330Z,100166.77
2023-03-15T16:57:26.277Z,100178.83
2023-03-15T17:00:12.771Z,100181.01
2023-03-15T17:02:53.329Z,100182.30
2023-03-15T17:05:31.511Z,100187.98
2023-03-15T17:08:08.088Z,100191.73
2023-03-15T17:10:49.710Z,100194.13
2023-03-15T17:13:37.850Z,100197.66
2023-03-15T17:16:14.725Z,100197.53
2023-03-15T17:18:54.835Z,100204.70
2023-03-15T17:21:38.915Z,100205.63
2023-03-15T17:24:17.582Z,100207.72
2023-03-15T17:26:58.648Z,100207.77
2023-03-15T17:29:38.223Z,100210.55
2023-03-15T17:32:21.333Z,100212.89
2023-03-15T17:35:02.785Z,100219.08
2023-03-15T17:37:46.073Z,100220.91
2023-03-15T17:40:39.305Z,100226.10
2023-03-15T17:43:20.600Z,100222.77
2023-03-15T17:46:01.860Z,100228.40
2023-03-15T17:48:44.948Z,100229.33
2023-03-15T17:51:24.945Z,100228.29
2023-03-15T17:54:01.875Z,100228.57
2023-03-15T17:56:46.941Z,100228.78
2023-03-15T17:59:22.149Z,100227.88
2023-03-15T18:01:59.473Z,100234.56
2023-03-15T18:04:41.448Z,100239.69
2023-03-15T18:07:20.687Z,100241.64
2023-03-15T18:10:00.872Z,100245.36
2023-03-15T18:12:40.788Z,100249.95
2023-03-15T18:15:24.855Z,100253.95
2023-03-15T18:18:01.141Z,100254.27
2023-03-15T18:20:38.098Z,100254.07
2023-03-15T18:23:18.486Z,100258.38
2023-03-15T18:25:57.314Z,100260.92
2023-03-15T18:28:35.277Z,100264.35
2023-03-15T18:31:17.738Z,100266.71
2023-03-15T18:33:55.861Z,100275.48
2023-03-15T18:36:34.836Z,100278.98
2023-03-15T18:39:13.309Z,100286.96
2023-03-15T18:41:47.946Z,100288.77
2023-03-15T18:44:27.292Z,100292.79
2023-03-15T18:47:08.409Z,100293.35
2023-03-15T18:49:51.150Z,100295.88
2023-03-15T18:52:32.591Z,100297.73
2023-03-15T18:55:17.842Z,100295.55
2023-03-15T18:57:58.441Z,100291.64
2023-03-15T19:00:38.028Z,100290.53
2023-03-15T19:03:20.554Z,100291.89
2023-03-15T19:06:10.970Z,100295.40
2023-03-15T19:08:56.169Z,100298.38
2023-03-15T19:11:39.467Z,100296.33
2023-03-15T19:14:17.797Z,100299.71
2023-03-15T19:17:00.899Z,100305.16
2023-03-15T19:19:39.028Z,100305.38
2023-03-15T19:22:16.070Z,100309.96
2023-03-15T19:24:55.662Z,100310.55
2023-03-15T19:27:33.554Z,100311.69
2023-03-15T19:30:15.786Z,100311.88
2023-03-15T19:33:05.009Z,100311.92
2023-03-15T19:35:42.664Z,100313.66
2023-03-15T19:38:20.071Z,100323.02
2023-03-15T19:41:01.981Z,100324.85
2023-03-15T19:43:44.133Z,100325.04
2023-03-15T19:46:29.686Z,100323.98
2023-03-15T19:49:11.661Z,100320.25
2023-03-15T19:51:53.094Z,100321.40
2023-03-15T19:54:34.171Z,100325.83
2023-03-15T19:57:16.565Z,100328.34
2023-03-15T19:59:55.011Z,100322.20
2023-03-15T20:02:37.667Z,100326.95
2023-03-15T20:05:17.975Z,100328.39
2023-03-15T20:07:59.571Z,100334.51
2023-03-15T20:10:41.356Z,100337.40
2023-03-15T20:13:23.003Z,100331.73
2023-03-15T20:16:02.728Z,100334.46
2023-03-15T20:18:44.072Z,100338.05
2023-03-15T20:21:23.380Z,100338.92
2023-03-15T20:24:05.807Z,100338.43
2023-03-15T20:26:47.720Z,100341.02
2023-03-15T20:29:28.030Z,100340.55
2023-03-15T20:32:05.715Z,100339.70
2023-03-15T20:34:47.351Z,100349.12
2023-03-15T20:37:25.670Z,100352.21
2023-03-15T20:40:10.974Z,100349.85
2023-03-15T20:42:52.429Z,100353.02
2023-03-15T20:45:33.173Z,100350.30
2023-03-15T20:48:11.477Z,100351.86
2023-03-15T20:50:47.307Z,100354.23
2023-03-15T20:53:25.346Z,100353.39
2023-03-15T20:56:05.739Z,100354.06
2023-03-15T20:58:43.715Z,100357.94
2023-03-15T21:01:27.234Z,100357.13
2023-03-15T21:04:09.873Z,100361.77
2023-03-15T21:06:51.800Z,100362.74
2023-03-15T21:09:31.629Z,100363.20
2023-03-15T21:12:16.986Z,100365.55
2023-03-15T21:15:03.649Z,100370.40
2023-03-15T21:17:42.431Z,100370.72
2023-03-15T21:20:19.160Z,100379.48
2023-03-15T21:22:57.417Z,100375.77
2023-03-15T21:25:31.054Z,100372.25
2023-03-15T21:28:09.586Z,100371.56
2023-03-15T21:30:45.867Z,100379.38
2023-03-15T21:33:20.872Z,100385.58
2023-03-15T21:36:00.262Z,100386.05
2023-03-15T21:38:38.050Z,100391.05
2023-03-15T21:41:14.585Z,100392.67
2023-03-15T21:43:53.336Z,100393.92
2023-03-15T21:46:28.366Z,100394.88
2023-03-15T21:49:04.507Z,100397.23
2023-03-15T21:51:39.898Z,100396.70
2023-03-15T21:54:15.613Z,100399.46
2023-03-15T21:56:53.738Z,100397.59
2023-03-15T21:59:28.781Z,100399.64
2023-03-15T22:02:04.063Z,100408.00
2023-03-15T22:04:38.588Z,100411.83
2023-03-15T22:07:12.986Z,100412.52
2023-03-15T22:09:46.900Z,100415.38
2023-03-15T22:12:20.853Z,100416.83
2023-03-15T22:15:05.377Z,100417.13
2023-03-15T22:17:39.863Z,100422.80
2023-03-15T22:20:17.090Z,100422.46
2023-03-15T22:22:51.628Z,100425.67
2023-03-15T22:25:25.876Z,100425.40
2023-03-15T22:27:59.194Z,100427.54
2023-03-15T22:30:33.487Z,100431.73
2023-03-15T22:33:07.544Z,100436.73
2023-03-15T22:35:41.803Z,100437.20
2023-03-15T22:38:16.086Z,100438.98
2023-03-15T22:40:49.923Z,100444.45
2023-03-15T22:43:23.922Z,100449.91
2023-03-15T22:45:57.640Z,100447.13
2023-03-15T22:48:32.238Z,100446.53
2023-03-15T22:51:07.254Z,100453.06
2023-03-15T22:53:40.820Z,100459.27
2023-03-15T22:56:14.713Z,100464.03
2023-03-15T22:58:49.082Z,100464.39
2023-03-15T23:01:23.119Z,100466.38
2023-03-15T23:03:57.139Z,100471.37
2023-03-15T23:06:30.835Z,100471.98
2023-03-15T23:09:06.592Z,100477.38
2023-03-15T23:11:40.679Z,100476.30
2023-03-15T23:14:14.736Z,100479.53
2023-03-15T23:16:48.568Z,100480.73
2023-03-15T23:19:22.688Z,100484.41
2023-03-15T23:21:56.163Z,100488.54
2023-03-15T23:24:29.732Z,100490.92
2023-03-15T23:27:03.717Z,100493.00
2023-03-15T23:29:53.014Z,100493.96
2023-03-15T23:32:28.242Z,100495.19
2023-03-15T23:35:03.428Z,100498.64
2023-03-15T23:37:37.300Z,100502.17
2023-03-15T23:40:15.542Z,100504.66
2023-03-15T23:42:53.263Z,100505.92
2023-03-15T23:45:28.316Z,100505.48
2023-03-15T23:48:02.758Z,100507.85
2023-03-15T23:50:39.256Z,100511.29
2023-03-15T23:53:12.757Z,100514.11
2023-03-15T23:55:46.447Z,100515.12
2023-03-15T23:58:20.073Z,100517.84
